createdAt,value
2018-03-15T00:01:12.073Z,13.55
2018-03-15T00:03:40.521Z,12.55
2018-03-15T00:06:09.313Z,13.13
2018-03-15T00:08:36.790Z,12.70
2018-03-15T00:11:05.923Z,13.73
2018-03-15T00:13:34.271Z,11.97
2018-03-15T00:16:01.748Z,11.13
2018-03-15T00:18:32.269Z,11.37
2018-03-15T00:20:59.737Z,11.60
2018-03-15T00:23:28.921Z,12.65
2018-03-15T00:25:56.438Z,12.37
2018-03-15T00:28:23.917Z,11.00
2018-03-15T00:30:51.374Z,13.27
2018-03-15T00:33:19.634Z,11.40
2018-03-15T00:35:47.551Z,11.63
2018-03-15T00:38:15.009Z,11.40
2018-03-15T00:40:42.473Z,11.80
2018-03-15T00:43:09.975Z,11.60
2018-03-15T00:45:37.433Z,11.35
2018-03-15T00:48:04.917Z,13.13
2018-03-15T00:50:32.421Z,12.13
2018-03-15T00:53:01.586Z,10.93
2018-03-15T00:55:29.049Z,12.32
2018-03-15T00:57:56.533Z,10.57
2018-03-15T01:00:24.137Z,12.80
2018-03-15T01:02:51.630Z,11.73
2018-03-15T01:05:19.474Z,12.40
2018-03-15T01:07:46.965Z,11.30
2018-03-15T01:10:14.779Z,10.02
2018-03-15T01:12:42.276Z,12.97
2018-03-15T01:15:09.737Z,10.50
2018-03-15T01:17:37.206Z,11.00
2018-03-15T01:20:05.446Z,12.63
2018-03-15T01:22:32.943Z,10.90
2018-03-15T01:25:01.240Z,10.50
2018-03-15T01:27:28.692Z,11.03
2018-03-15T01:30:01.257Z,12.73
2018-03-15T01:32:30.120Z,12.20
2018-03-15T01:34:57.654Z,12.70
2018-03-15T01:37:25.168Z,12.07
2018-03-15T01:39:55.191Z,13.93
2018-03-15T01:42:24.974Z,12.32
2018-03-15T01:44:52.458Z,10.90
2018-03-15T01:47:21.392Z,12.43
2018-03-15T01:49:49.473Z,14.47
2018-03-15T01:52:17.637Z,11.37
2018-03-15T01:54:45.101Z,12.73
2018-03-15T01:57:13.525Z,12.35
2018-03-15T01:59:40.978Z,12.17
2018-03-15T02:02:09.184Z,12.93
2018-03-15T02:04:36.710Z,11.20
2018-03-15T02:07:04.253Z,13.40
2018-03-15T02:09:33.413Z,13.33
2018-03-15T02:12:00.878Z,11.60
2018-03-15T02:14:28.356Z,12.15
2018-03-15T02:16:55.822Z,11.63
2018-03-15T02:19:23.310Z,13.17
2018-03-15T02:21:50.771Z,12.73
2018-03-15T02:24:19.264Z,12.10
2018-03-15T02:26:47.715Z,11.50
2018-03-15T02:29:16.149Z,12.57
2018-03-15T02:31:43.601Z,11.60
2018-03-15T02:34:12.049Z,12.73
2018-03-15T02:36:39.539Z,10.23
2018-03-15T02:39:07.788Z,12.10
2018-03-15T02:41:36.221Z,10.82
2018-03-15T02:44:03.681Z,12.93
2018-03-15T02:46:35.680Z,12.63
2018-03-15T02:49:03.176Z,10.80
2018-03-15T02:51:31.142Z,13.13
2018-03-15T02:53:59.929Z,13.57
2018-03-15T02:56:27.902Z,11.75
2018-03-15T02:58:57.390Z,11.48
2018-03-15T03:01:28.792Z,13.88
2018-03-15T03:04:00.517Z,14.23
2018-03-15T03:06:27.984Z,11.40
2018-03-15T03:08:55.481Z,11.65
2018-03-15T03:11:22.949Z,12.43
2018-03-15T03:13:52.126Z,9.80
2018-03-15T03:16:19.597Z,10.53
2018-03-15T03:18:47.940Z,10.13
2018-03-15T03:21:17.266Z,11.25
2018-03-15T03:23:47.282Z,9.50
2018-03-15T03:26:14.949Z,10.18
2018-03-15T03:28:42.460Z,11.60
2018-03-15T03:31:09.967Z,10.93
2018-03-15T03:33:37.426Z,9.53
2018-03-15T03:36:06.024Z,11.20
2018-03-15T03:38:34.256Z,9.40
2018-03-15T03:41:01.740Z,11.43
2018-03-15T03:43:30.628Z,10.82
2018-03-15T03:45:58.105Z,9.70
2018-03-15T03:48:30.784Z,10.70
2018-03-15T03:51:00.528Z,9.47
2018-03-15T03:53:27.985Z,10.97
2018-03-15T03:55:56.169Z,12.63
2018-03-15T03:58:23.677Z,11.90
2018-03-15T04:00:51.165Z,11.70
2018-03-15T04:03:22.054Z,10.50
2018-03-15T04:05:51.213Z,11.57
2018-03-15T04:08:18.693Z,11.53
2018-03-15T04:10:47.021Z,11.80
2018-03-15T04:13:16.297Z,10.93
2018-03-15T04:15:43.774Z,12.07
2018-03-15T04:18:17.326Z,11.48
2018-03-15T04:20:45.687Z,12.40
2018-03-15T04:23:13.176Z,11.50
2018-03-15T04:25:41.360Z,10.07
2018-03-15T04:28:08.853Z,11.27
2018-03-15T04:30:38.509Z,11.95
2018-03-15T04:33:11.416Z,13.53
2018-03-15T04:35:38.926Z,12.32
2018-03-15T04:38:06.381Z,12.57
2018-03-15T04:40:33.873Z,12.05
2018-03-15T04:43:02.120Z,12.40
2018-03-15T04:45:31.625Z,12.48
2018-03-15T04:48:03.691Z,12.90
2018-03-15T04:50:31.184Z,12.07
2018-03-15T04:52:59.714Z,13.05
2018-03-15T04:55:27.188Z,11.50
2018-03-15T04:57:56.125Z,12.30
2018-03-15T05:00:23.613Z,11.87
2018-03-15T05:02:51.081Z,11.00
2018-03-15T05:05:19.570Z,11.77
2018-03-15T05:07:47.893Z,12.60
2018-03-15T05:10:17.094Z,11.77
2018-03-15T05:12:44.835Z,11.68
2018-03-15T05:15:12.312Z,11.80
2018-03-15T05:17:39.793Z,11.23
2018-03-15T05:20:07.249Z,12.80
2018-03-15T05:22:35.618Z,10.90
2018-03-15T05:25:04.807Z,11.60
2018-03-15T05:27:32.283Z,11.55
2018-03-15T05:30:00.542Z,12.83
2018-03-15T05:32:29.733Z,11.52
2018-03-15T05:35:05.489Z,13.88
2018-03-15T05:37:32.968Z,12.52
2018-03-15T05:40:00.489Z,12.32
2018-03-15T05:42:27.966Z,12.50
2018-03-15T05:44:56.407Z,12.43
2018-03-15T05:47:25.238Z,14.77
2018-03-15T05:49:57.913Z,14.60
2018-03-15T05:52:25.366Z,15.05
2018-03-15T05:54:52.825Z,10.80
2018-03-15T05:57:20.291Z,13.35
2018-03-15T05:59:48.228Z,11.20
2018-03-15T06:02:15.721Z,11.57
2018-03-15T06:04:48.365Z,12.57
2018-03-15T06:07:15.841Z,11.90
2018-03-15T06:09:43.314Z,13.77
2018-03-15T06:12:10.773Z,13.32
2018-03-15T06:14:39.761Z,12.30
2018-03-15T06:17:07.235Z,11.90
2018-03-15T06:19:41.853Z,11.43
2018-03-15T06:22:09.913Z,10.98
2018-03-15T06:24:37.412Z,13.45
2018-03-15T06:27:04.892Z,12.80
2018-03-15T06:29:32.477Z,12.60
2018-03-15T06:32:00.866Z,12.77
2018-03-15T06:34:29.665Z,13.30
2018-03-15T06:36:57.205Z,12.87
2018-03-15T06:39:24.671Z,13.10
2018-03-15T06:41:52.137Z,13.60
2018-03-15T06:44:19.607Z,14.70
2018-03-15T06:46:47.086Z,11.57
2018-03-15T06:49:16.229Z,10.60
2018-03-15T06:51:43.697Z,12.00
2018-03-15T06:54:11.203Z,12.52
2018-03-15T06:56:38.667Z,12.20
2018-03-15T06:59:07.809Z,10.70
2018-03-15T07:01:35.973Z,11.20
2018-03-15T07:04:03.588Z,14.00
2018-03-15T07:06:32.731Z,11.10
2018-03-15T07:09:00.283Z,12.70
2018-03-15T07:11:28.230Z,12.13
2018-03-15T07:13:55.725Z,10.90
2018-03-15T07:16:24.097Z,10.33
2018-03-15T07:18:51.622Z,11.12
2018-03-15T07:21:20.071Z,11.00
2018-03-15T07:23:48.110Z,9.83
2018-03-15T07:26:15.615Z,12.10
2018-03-15T07:28:43.330Z,12.10
2018-03-15T07:31:11.840Z,10.80
2018-03-15T07:33:39.646Z,10.80
2018-03-15T07:36:10.718Z,12.52
2018-03-15T07:38:38.180Z,11.30
2018-03-15T07:41:05.885Z,12.25
2018-03-15T07:43:33.403Z,13.40
2018-03-15T07:46:02.250Z,12.00
2018-03-15T07:48:31.197Z,10.82
2018-03-15T07:51:04.845Z,10.10
2018-03-15T07:53:32.311Z,10.27
2018-03-15T07:56:01.511Z,10.95
2018-03-15T07:58:30.519Z,9.50
2018-03-15T08:00:57.993Z,10.30
2018-03-15T08:03:25.781Z,10.60
2018-03-15T08:05:53.256Z,10.73
2018-03-15T08:08:20.693Z,9.87
2018-03-15T08:10:48.837Z,10.10
2018-03-15T08:13:17.097Z,10.10
2018-03-15T08:15:44.881Z,10.10
2018-03-15T08:18:12.370Z,10.40
2018-03-15T08:20:39.883Z,10.57
2018-03-15T08:23:07.337Z,11.17
2018-03-15T08:25:35.503Z,9.67
2018-03-15T08:28:02.961Z,10.13
2018-03-15T08:30:30.490Z,8.97
2018-03-15T08:32:58.716Z,9.48
2018-03-15T08:35:27.203Z,8.60
2018-03-15T08:37:56.098Z,7.60
2018-03-15T08:40:24.264Z,7.47
2018-03-15T08:42:52.601Z,6.68
2018-03-15T08:45:21.037Z,6.13
2018-03-15T08:47:48.529Z,5.63
2018-03-15T08:50:15.985Z,6.33
2018-03-15T08:52:47.988Z,7.40
2018-03-15T08:55:16.229Z,5.30
2018-03-15T08:57:43.680Z,5.70
2018-03-15T09:00:12.150Z,5.17
2018-03-15T09:02:39.637Z,5.43
2018-03-15T09:05:09.410Z,6.62
2018-03-15T09:07:36.903Z,5.53
2018-03-15T09:10:04.349Z,5.68
2018-03-15T09:12:31.856Z,6.46
2018-03-15T09:14:59.309Z,5.57
2018-03-15T09:17:28.330Z,6.54
2018-03-15T09:19:57.453Z,5.57
2018-03-15T09:22:24.965Z,6.80
2018-03-15T09:24:53.246Z,6.07
2018-03-15T09:27:22.419Z,5.50
2018-03-15T09:29:50.197Z,5.67
2018-03-15T09:32:17.673Z,6.47
2018-03-15T09:34:45.117Z,5.80
2018-03-15T09:37:12.648Z,5.27
2018-03-15T09:39:40.108Z,6.67
2018-03-15T09:42:07.589Z,7.10
2018-03-15T09:44:36.784Z,5.30
2018-03-15T09:47:04.245Z,6.15
2018-03-15T09:49:31.773Z,5.00
2018-03-15T09:51:59.270Z,6.97
2018-03-15T09:54:32.174Z,6.47
2018-03-15T09:56:59.675Z,5.20
2018-03-15T09:59:27.160Z,6.00
2018-03-15T10:01:54.671Z,5.95
2018-03-15T10:04:22.151Z,5.50
2018-03-15T10:06:50.248Z,6.43
2018-03-15T10:09:21.897Z,5.70
2018-03-15T10:11:49.464Z,6.00
2018-03-15T10:14:16.938Z,5.93
2018-03-15T10:16:45.305Z,5.47
2018-03-15T10:19:12.828Z,6.00
2018-03-15T10:21:40.317Z,6.40
2018-03-15T10:24:07.782Z,7.83
2018-03-15T10:26:35.505Z,5.60
2018-03-15T10:29:02.972Z,5.30
2018-03-15T10:31:30.453Z,5.47
2018-03-15T10:33:58.729Z,5.00
2018-03-15T10:36:26.927Z,5.68
2018-03-15T10:38:54.460Z,4.60
2018-03-15T10:41:21.926Z,5.03
2018-03-15T10:43:49.497Z,6.23
2018-03-15T10:46:17.826Z,5.73
2018-03-15T10:48:45.293Z,6.50
2018-03-15T10:51:13.672Z,5.60
2018-03-15T10:53:41.162Z,4.50
2018-03-15T10:56:08.626Z,5.68
2018-03-15T10:58:37.866Z,5.45
2018-03-15T11:01:07.627Z,5.67
2018-03-15T11:03:41.175Z,5.00
2018-03-15T11:06:10.442Z,5.60
2018-03-15T11:08:38.862Z,5.20
2018-03-15T11:11:06.329Z,5.37
2018-03-15T11:13:33.847Z,4.40
2018-03-15T11:16:01.321Z,4.87
2018-03-15T11:18:28.797Z,5.17
2018-03-15T11:20:56.299Z,4.35
2018-03-15T11:23:23.761Z,4.85
2018-03-15T11:25:51.817Z,4.57
2018-03-15T11:28:19.276Z,4.93
2018-03-15T11:30:46.745Z,4.60
2018-03-15T11:33:14.257Z,5.30
2018-03-15T11:35:42.513Z,5.10
2018-03-15T11:38:09.989Z,4.90
2018-03-15T11:40:40.517Z,5.33
2018-03-15T11:43:07.962Z,5.10
2018-03-15T11:45:35.645Z,4.90
2018-03-15T11:48:03.129Z,5.40
2018-03-15T11:50:30.641Z,5.28
2018-03-15T11:52:58.119Z,5.20
2018-03-15T11:55:33.821Z,4.80
2018-03-15T11:58:01.313Z,5.70
2018-03-15T12:00:28.818Z,4.73
2018-03-15T12:02:56.311Z,6.10
2018-03-15T12:05:23.797Z,5.20
2018-03-15T12:07:52.033Z,6.15
2018-03-15T12:10:20.078Z,4.70
2018-03-15T12:12:47.593Z,4.82
2018-03-15T12:15:15.062Z,4.80
2018-03-15T12:17:42.543Z,5.30
2018-03-15T12:20:10.022Z,7.97
2018-03-15T12:22:37.533Z,6.12
2018-03-15T12:25:05.045Z,5.40
2018-03-15T12:27:32.541Z,4.90
2018-03-15T12:30:00.015Z,4.90
2018-03-15T12:32:27.572Z,4.70
2018-03-15T12:34:55.031Z,5.03
2018-03-15T12:37:23.030Z,4.68
2018-03-15T12:39:50.554Z,4.60
2018-03-15T12:42:18.015Z,5.60
2018-03-15T12:44:45.469Z,5.03
2018-03-15T12:47:13.031Z,4.13
2018-03-15T12:49:40.541Z,5.93
2018-03-15T12:52:08.022Z,5.00
2018-03-15T12:54:37.191Z,7.07
2018-03-15T12:57:04.656Z,6.43
2018-03-15T12:59:32.230Z,6.47
2018-03-15T13:01:59.751Z,6.57
2018-03-15T13:04:27.995Z,6.17
2018-03-15T13:06:56.162Z,6.55
2018-03-15T13:09:23.666Z,5.77
2018-03-15T13:11:51.169Z,5.85
2018-03-15T13:14:18.678Z,6.80
2018-03-15T13:16:46.141Z,5.97
2018-03-15T13:19:13.626Z,6.10
2018-03-15T13:21:41.100Z,7.00
2018-03-15T13:24:08.613Z,6.70
2018-03-15T13:26:40.111Z,5.43
2018-03-15T13:29:07.610Z,5.85
2018-03-15T13:31:35.733Z,6.78
2018-03-15T13:34:03.219Z,6.85
2018-03-15T13:36:30.713Z,7.55
2018-03-15T13:38:59.054Z,6.12
2018-03-15T13:41:26.555Z,6.13
2018-03-15T13:43:58.607Z,6.03
2018-03-15T13:46:26.122Z,7.00
2018-03-15T13:48:54.050Z,6.97
2018-03-15T13:51:21.549Z,7.80
2018-03-15T13:53:49.052Z,8.93
2018-03-15T13:56:16.515Z,7.90
2018-03-15T13:58:48.561Z,6.45
2018-03-15T14:01:16.034Z,6.55
2018-03-15T14:03:43.546Z,5.37
2018-03-15T14:06:10.995Z,6.40
2018-03-15T14:08:38.495Z,6.33
2018-03-15T14:11:06.055Z,6.22
2018-03-15T14:13:37.387Z,6.63
2018-03-15T14:16:05.189Z,6.47
2018-03-15T14:18:33.223Z,6.03
2018-03-15T14:21:00.699Z,7.93
2018-03-15T14:23:28.202Z,6.80
2018-03-15T14:25:55.725Z,7.43
2018-03-15T14:28:26.340Z,7.55
2018-03-15T14:30:54.690Z,6.07
2018-03-15T14:33:22.501Z,6.40
2018-03-15T14:35:49.988Z,6.83
2018-03-15T14:38:17.486Z,6.83
2018-03-15T14:40:45.019Z,7.00
2018-03-15T14:43:13.251Z,6.37
2018-03-15T14:45:41.266Z,6.27
2018-03-15T14:48:08.725Z,6.60
2018-03-15T14:50:36.286Z,7.13
2018-03-15T14:53:03.802Z,5.33
2018-03-15T14:55:31.390Z,7.18
2018-03-15T14:58:02.483Z,7.90
2018-03-15T15:00:30.974Z,6.43
2018-03-15T15:02:59.253Z,5.97
2018-03-15T15:05:26.727Z,7.70
2018-03-15T15:07:54.420Z,5.90
2018-03-15T15:10:22.689Z,7.23
2018-03-15T15:12:50.267Z,6.35
2018-03-15T15:15:17.705Z,6.30
2018-03-15T15:17:46.109Z,7.27
2018-03-15T15:20:14.541Z,5.80
2018-03-15T15:22:42.140Z,6.15
2018-03-15T15:25:09.935Z,6.20
2018-03-15T15:27:37.452Z,5.63
2018-03-15T15:30:07.773Z,6.97
2018-03-15T15:32:35.257Z,6.13
2018-03-15T15:35:02.710Z,8.07
2018-03-15T15:37:30.204Z,5.97
2018-03-15T15:39:58.494Z,6.66
2018-03-15T15:42:26.024Z,6.62
2018-03-15T15:44:53.603Z,7.13
2018-03-15T15:47:21.128Z,6.93
2018-03-15T15:49:49.500Z,6.33
2018-03-15T15:52:18.728Z,6.93
2018-03-15T15:54:46.201Z,7.23
2018-03-15T15:57:13.657Z,7.37
2018-03-15T15:59:44.133Z,7.30
2018-03-15T16:02:11.732Z,8.30
2018-03-15T16:04:39.293Z,8.23
2018-03-15T16:07:07.409Z,7.07
2018-03-15T16:09:35.041Z,7.20
2018-03-15T16:12:02.564Z,8.32
2018-03-15T16:14:30.144Z,8.45
2018-03-15T16:16:57.621Z,8.30
2018-03-15T16:19:25.753Z,7.30
2018-03-15T16:21:54.026Z,8.40
2018-03-15T16:24:21.691Z,8.43
2018-03-15T16:26:49.505Z,8.70
2018-03-15T16:29:17.122Z,8.70
2018-03-15T16:31:46.560Z,7.68
2018-03-15T16:34:14.019Z,7.53
2018-03-15T16:36:42.141Z,7.17
2018-03-15T16:39:10.494Z,9.44
2018-03-15T16:41:38.016Z,7.93
2018-03-15T16:44:06.272Z,9.03
2018-03-15T16:46:38.766Z,8.63
2018-03-15T16:49:06.307Z,8.85
2018-03-15T16:51:33.830Z,6.93
2018-03-15T16:54:01.313Z,8.03
2018-03-15T16:56:28.761Z,7.60
2018-03-15T16:58:56.335Z,8.45
2018-03-15T17:01:27.707Z,7.10
2018-03-15T17:03:55.976Z,7.83
2018-03-15T17:06:25.747Z,7.80
2018-03-15T17:08:53.261Z,8.83
2018-03-15T17:11:22.661Z,6.57
2018-03-15T17:13:51.520Z,9.13
2018-03-15T17:16:22.791Z,9.10
2018-03-15T17:18:50.350Z,7.65
2018-03-15T17:21:17.865Z,8.27
2018-03-15T17:23:45.348Z,8.30
2018-03-15T17:26:12.824Z,7.78
2018-03-15T17:28:40.429Z,7.97
2018-03-15T17:31:15.473Z,6.87
2018-03-15T17:33:42.955Z,8.10
2018-03-15T17:36:10.598Z,8.60
2018-03-15T17:38:38.095Z,8.90
2018-03-15T17:41:06.315Z,7.27
2018-03-15T17:43:35.474Z,8.23
2018-03-15T17:46:07.842Z,8.90
2018-03-15T17:48:36.402Z,7.60
2018-03-15T17:51:03.863Z,8.67
2018-03-15T17:53:31.361Z,9.80
2018-03-15T17:56:00.518Z,10.20
2018-03-15T17:58:28.117Z,9.37
2018-03-15T18:00:55.565Z,16.37
2018-03-15T18:03:23.338Z,9.52
2018-03-15T18:05:52.493Z,9.80
2018-03-15T18:08:20.694Z,7.60
2018-03-15T18:10:48.151Z,7.93
2018-03-15T18:13:15.667Z,7.87
2018-03-15T18:15:45.285Z,9.45
2018-03-15T18:18:14.008Z,9.20
2018-03-15T18:20:41.475Z,9.75
2018-03-15T18:23:09.850Z,8.37
2018-03-15T18:25:37.339Z,8.80
2018-03-15T18:28:04.831Z,8.33
2018-03-15T18:30:33.225Z,9.93
2018-03-15T18:33:00.810Z,8.67
2018-03-15T18:35:28.260Z,7.80
2018-03-15T18:37:55.904Z,9.67
2018-03-15T18:40:23.459Z,8.60
2018-03-15T18:42:50.982Z,8.55
2018-03-15T18:45:18.530Z,9.00
2018-03-15T18:47:46.149Z,9.33
2018-03-15T18:50:13.676Z,9.00
2018-03-15T18:52:41.850Z,9.35
2018-03-15T18:55:09.338Z,9.13
2018-03-15T18:57:36.854Z,8.50
2018-03-15T19:00:04.372Z,9.13
2018-03-15T19:02:31.884Z,9.75
2018-03-15T19:04:59.378Z,9.27
2018-03-15T19:07:26.878Z,10.10
2018-03-15T19:09:54.413Z,8.82
2018-03-15T19:12:21.913Z,10.48
2018-03-15T19:14:49.921Z,9.45
2018-03-15T19:17:17.394Z,11.07
2018-03-15T19:19:44.853Z,8.77
2018-03-15T19:22:12.337Z,8.98
2018-03-15T19:24:40.633Z,9.43
2018-03-15T19:27:08.130Z,10.33
2018-03-15T19:29:35.606Z,10.10
2018-03-15T19:32:03.416Z,10.55
2018-03-15T19:34:31.641Z,10.55
2018-03-15T19:37:00.017Z,10.87
2018-03-15T19:39:28.416Z,9.88
2018-03-15T19:41:55.897Z,10.00
2018-03-15T19:44:24.239Z,10.30
2018-03-15T19:46:51.730Z,13.40
2018-03-15T19:49:19.221Z,10.70
2018-03-15T19:51:47.415Z,11.05
2018-03-15T19:54:15.823Z,11.20
2018-03-15T19:56:43.347Z,10.07
2018-03-15T19:59:11.437Z,10.20
2018-03-15T20:01:38.909Z,11.63
2018-03-15T20:04:11.298Z,11.33
2018-03-15T20:06:38.787Z,10.90
2018-03-15T20:09:06.340Z,12.48
2018-03-15T20:11:35.586Z,10.47
2018-03-15T20:14:03.881Z,11.90
2018-03-15T20:16:31.902Z,12.05
2018-03-15T20:19:05.001Z,10.32
2018-03-15T20:21:39.431Z,11.23
2018-03-15T20:24:13.194Z,10.30
2018-03-15T20:26:40.645Z,11.47
2018-03-15T20:29:08.085Z,11.25
2018-03-15T20:31:35.617Z,11.63
2018-03-15T20:34:10.942Z,12.85
2018-03-15T20:36:38.437Z,12.20
2018-03-15T20:39:11.430Z,11.43
2018-03-15T20:41:38.886Z,11.97
2018-03-15T20:44:06.434Z,13.10
2018-03-15T20:46:41.711Z,10.82
2018-03-15T20:49:15.855Z,11.68
2018-03-15T20:51:43.313Z,13.20
2018-03-15T20:54:11.713Z,11.50
2018-03-15T20:56:39.289Z,11.40
2018-03-15T20:59:06.752Z,11.80
2018-03-15T21:01:34.266Z,13.00
2018-03-15T21:04:02.502Z,10.95
2018-03-15T21:06:30.656Z,11.43
2018-03-15T21:08:58.118Z,10.82
2018-03-15T21:11:25.604Z,11.33
2018-03-15T21:13:53.103Z,11.87
2018-03-15T21:16:21.310Z,12.32
2018-03-15T21:18:48.771Z,10.93
2018-03-15T21:21:19.649Z,12.77
2018-03-15T21:23:47.105Z,12.35
2018-03-15T21:26:14.647Z,12.85
2018-03-15T21:28:42.143Z,10.60
2018-03-15T21:31:10.397Z,13.77
2018-03-15T21:33:37.859Z,14.10
2018-03-15T21:36:08.490Z,11.50
2018-03-15T21:38:35.955Z,11.60
2018-03-15T21:41:04.149Z,11.68
2018-03-15T21:43:31.698Z,12.43
2018-03-15T21:45:59.197Z,12.53
2018-03-15T21:48:26.702Z,11.43
2018-03-15T21:50:54.226Z,10.88
2018-03-15T21:53:21.715Z,10.17
2018-03-15T21:55:49.806Z,11.00
2018-03-15T21:58:18.859Z,12.20
2018-03-15T22:00:46.406Z,12.82
2018-03-15T22:03:14.229Z,13.50
2018-03-15T22:05:46.524Z,10.52
2018-03-15T22:08:14.064Z,10.27
2018-03-15T22:10:41.661Z,11.40
2018-03-15T22:13:09.150Z,13.20
2018-03-15T22:15:37.621Z,11.70
2018-03-15T22:18:05.140Z,11.65
2018-03-15T22:20:32.706Z,11.83
2018-03-15T22:23:00.380Z,13.03
2018-03-15T22:25:27.904Z,13.07
2018-03-15T22:27:57.091Z,12.73
2018-03-15T22:30:24.624Z,13.77
2018-03-15T22:32:52.126Z,13.38
2018-03-15T22:35:21.336Z,14.10
2018-03-15T22:37:50.495Z,13.67
2018-03-15T22:40:18.012Z,12.27
2018-03-15T22:42:46.337Z,13.23
2018-03-15T22:45:13.912Z,13.00
2018-03-15T22:47:42.176Z,11.50
2018-03-15T22:50:10.596Z,14.35
2018-03-15T22:52:42.042Z,13.20
2018-03-15T22:55:09.536Z,13.20
2018-03-15T22:57:37.035Z,13.93
2018-03-15T23:00:04.563Z,12.18
2018-03-15T23:02:32.085Z,11.67
2018-03-15T23:05:00.275Z,11.60
2018-03-15T23:07:28.662Z,13.57
2018-03-15T23:09:56.187Z,14.45
2018-03-15T23:12:25.396Z,14.30
2018-03-15T23:14:52.884Z,14.93
2018-03-15T23:17:20.439Z,13.10
2018-03-15T23:19:48.838Z,15.63
2018-03-15T23:22:17.328Z,14.23
2018-03-15T23:24:44.863Z,14.30
2018-03-15T23:27:12.439Z,13.93
2018-03-15T23:29:39.985Z,14.23
2018-03-15T23:32:08.440Z,13.82
2018-03-15T23:34:35.955Z,13.00
2018-03-15T23:37:10.420Z,15.00
2018-03-15T23:39:39.607Z,13.87
2018-03-15T23:42:07.883Z,14.33
2018-03-15T23:44:36.223Z,13.27
2018-03-15T23:47:05.039Z,13.95
2018-03-15T23:49:32.608Z,13.27
2018-03-15T23:52:06.876Z,13.62
2018-03-15T23:54:34.984Z,13.57
2018-03-15T23:57:02.471Z,12.20
2018-03-15T23:59:30.787Z,13.07
